Time;durP1;ratioP1;P1;durP2;ratioP2;P2;SDS_P1;SDS_P2;PMS_P1;PMS_P2;Temp;Humidity;BMP_temperature;BMP_pressure;BME280_temperature;BME280_humidity;BME280_pressure;Samples;Min_cycle;Max_cycle;Signal;HPM_P1;HPM_P2
2023/04/01 00:01:02;;;;;;;6.80;1.17;;;13.30;61.70;;;;;;4994384;28;20031;-73
2023/04/01 00:03:28;;;;;;;3.55;0.90;;;13.30;61.70;;;;;;4995388;28;20026;-73
2023/04/01 00:05:56;;;;;;;1.40;0.82;;;13.40;61.90;;;;;;4995087;28;20105;-72
2023/04/01 00:08:22;;;;;;;8.30;0.90;;;13.40;62.00;;;;;;4995400;28;20030;-73
2023/04/01 00:10:48;;;;;;;2.25;0.80;;;13.40;62.70;;;;;;4995065;28;20028;-73
2023/04/01 00:13:14;;;;;;;2.00;0.65;;;13.40;61.90;;;;;;4995283;28;20101;-73
2023/04/01 00:15:40;;;;;;;5.93;1.00;;;13.50;61.80;;;;;;4977886;28;20110;-73
2023/04/01 00:18:06;;;;;;;1.77;0.63;;;13.40;61.70;;;;;;4994706;28;20034;-73
2023/04/01 00:20:32;;;;;;;2.95;0.80;;;13.50;61.80;;;;;;4995058;28;20178;-73
2023/04/01 00:22:58;;;;;;;2.70;0.98;;;13.50;61.90;;;;;;4995178;28;20140;-73
2023/04/01 00:25:24;;;;;;;6.03;1.27;;;13.50;62.10;;;;;;4977467;28;20034;-74
2023/04/01 00:27:50;;;;;;;3.22;1.10;;;13.50;62.30;;;;;;4995068;28;20025;-73
2023/04/01 00:30:16;;;;;;;1.90;0.77;;;13.40;62.10;;;;;;4977071;28;20030;-73
2023/04/01 00:32:42;;;;;;;5.82;1.20;;;13.40;62.20;;;;;;4994223;28;20423;-73
2023/04/01 00:35:08;;;;;;;1.15;0.52;;;13.40;62.20;;;;;;4994520;28;20050;-72
2023/04/01 00:37:36;;;;;;;5.85;1.08;;;13.30;61.90;;;;;;4977472;28;20041;-73
2023/04/01 00:40:05;;;;;;;0.68;0.40;;;13.20;61.70;;;;;;4994656;28;20058;-73
2023/04/01 00:42:31;;;;;;;2.90;0.93;;;13.20;62.10;;;;;;4976685;28;20026;-73
2023/04/01 00:44:57;;;;;;;0.80;0.50;;;13.20;63.10;;;;;;4994802;28;20023;-73
2023/04/01 00:47:26;;;;;;;0.82;0.43;;;13.30;62.50;;;;;;4994559;28;20088;-72
2023/04/01 00:49:54;;;;;;;3.80;0.70;;;13.30;62.70;;;;;;4977164;28;20482;-73
2023/04/01 00:52:25;;;;;;;1.65;0.88;;;13.30;62.80;;;;;;4994417;28;20102;-73
2023/04/01 00:54:56;;;;;;;1.77;0.77;;;13.40;62.90;;;;;;4977197;28;20118;-73
2023/04/01 00:57:29;;;;;;;4.90;1.10;;;13.40;63.10;;;;;;4976958;28;20088;-73
2023/04/01 00:59:55;;;;;;;1.30;0.60;;;13.40;63.10;;;;;;4976834;28;20783;-72
2023/04/01 01:02:31;;;;;;;1.55;0.73;;;13.40;63.10;;;;;;4994261;28;20026;-73
2023/04/01 01:04:57;;;;;;;3.03;0.65;;;13.40;63.10;;;;;;4994682;28;20046;-73
2023/04/01 01:07:28;;;;;;;2.78;0.80;;;13.40;63.10;;;;;;4994493;28;20065;-73
2023/04/01 01:10:24;;;;;;;1.75;0.55;;;13.50;63.30;;;;;;4994174;28;20023;-73
2023/04/01 01:13:17;;;;;;;4.57;0.80;;;13.50;63.50;;;;;;4991353;28;20110;-72
2023/04/01 01:16:01;;;;;;;4.07;0.90;;;13.40;63.50;;;;;;4994227;28;20026;-73
2023/04/01 01:18:34;;;;;;;;;;;13.40;63.50;;;;;;4994516;28;20455;-73
2023/04/01 01:21:34;;;;;;;1.45;0.70;;;13.40;63.20;;;;;;4976623;28;19964;-72
2023/04/01 01:24:05;;;;;;;5.50;1.00;;;13.40;63.60;;;;;;4976771;28;20106;-74
2023/04/01 01:26:46;;;;;;;2.58;0.60;;;13.40;63.70;;;;;;4993707;28;20030;-74
2023/04/01 01:29:24;;;;;;;2.58;0.70;;;13.30;63.90;;;;;;4994094;28;20475;-74
2023/04/01 01:32:03;;;;;;;1.08;0.65;;;13.30;64.30;;;;;;4975858;28;20034;-75
2023/04/01 01:34:50;;;;;;;1.23;0.90;;;13.30;64.50;;;;;;4993847;28;20404;-74
2023/04/01 01:37:20;;;;;;;2.33;0.63;;;13.30;64.50;;;;;;4994032;28;20046;-74
2023/04/01 01:39:52;;;;;;;6.93;1.27;;;13.30;64.40;;;;;;4976278;28;20110;-74
2023/04/01 01:42:20;;;;;;;3.22;0.80;;;13.30;64.60;;;;;;4993943;28;20046;-74
2023/04/01 01:44:49;;;;;;;4.07;0.93;;;13.30;64.80;;;;;;4993919;28;20022;-74
2023/04/01 01:47:16;;;;;;;3.33;0.80;;;13.30;65.10;;;;;;4993421;28;20018;-75
2023/04/01 01:49:44;;;;;;;2.50;0.80;;;13.30;65.10;;;;;;4994034;28;20030;-73
2023/04/01 01:52:12;;;;;;;2.17;1.05;;;13.20;65.10;;;;;;4993915;28;20515;-74
2023/04/01 01:54:51;;;;;;;1.20;0.77;;;13.20;65.10;;;;;;4976400;28;20030;-73
2023/04/01 01:57:19;;;;;;;2.47;0.90;;;13.20;65.00;;;;;;4993723;28;20030;-74
2023/04/01 01:59:47;;;;;;;4.97;1.00;;;13.20;65.00;;;;;;4976146;28;20480;-74
2023/04/01 02:02:14;;;;;;;3.10;0.95;;;13.20;65.00;;;;;;4993388;28;20034;-75
2023/04/01 02:04:44;;;;;;;1.70;0.60;;;13.20;65.10;;;;;;4993761;28;20073;-74
2023/04/01 02:07:22;;;;;;;1.40;0.63;;;13.10;65.00;;;;;;4975921;28;20034;-74
2023/04/01 02:09:48;;;;;;;3.67;0.80;;;13.10;65.10;;;;;;4993733;28;20030;-73
2023/04/01 02:12:16;;;;;;;2.97;1.05;;;13.10;65.00;;;;;;4993480;28;20030;-73
2023/04/01 02:14:53;;;;;;;4.07;1.33;;;13.00;65.00;;;;;;4994196;28;20098;-73
2023/04/01 02:17:27;;;;;;;2.30;0.77;;;13.00;65.10;;;;;;4973911;28;20034;-74
2023/04/01 02:20:09;;;;;;;9.32;1.23;;;13.00;65.20;;;;;;4972884;28;20071;-74
2023/04/01 02:22:41;;;;;;;3.25;0.57;;;12.90;65.30;;;;;;4973131;28;20118;-73
2023/04/01 02:25:13;;;;;;;3.08;1.23;;;12.90;65.30;;;;;;4995505;28;20050;-74
2023/04/01 02:27:42;;;;;;;4.32;1.30;;;12.90;65.50;;;;;;4997053;28;20027;-74
2023/04/01 02:30:09;;;;;;;4.50;1.20;;;12.90;65.60;;;;;;4994222;28;20128;-74
2023/04/01 02:32:37;;;;;;;2.67;1.00;;;12.90;65.80;;;;;;4977714;28;20054;-74
2023/04/01 02:35:11;;;;;;;2.30;0.93;;;12.80;65.70;;;;;;4981320;28;20117;-74
2023/04/01 02:37:42;;;;;;;3.40;1.10;;;12.80;65.60;;;;;;4979606;28;20038;-73
2023/04/01 02:40:11;;;;;;;2.58;1.35;;;12.80;65.30;;;;;;4996952;28;20030;-74
2023/04/01 02:42:37;;;;;;;2.47;0.82;;;12.70;65.10;;;;;;4997046;28;20022;-74
2023/04/01 02:45:04;;;;;;;6.35;1.23;;;12.70;65.10;;;;;;4996846;28;20033;-73
2023/04/01 02:47:30;;;;;;;3.20;0.70;;;12.60;64.90;;;;;;4996913;28;20022;-73
2023/04/01 02:49:58;;;;;;;3.88;0.85;;;12.60;65.00;;;;;;4996655;28;20045;-73
2023/04/01 02:52:30;;;;;;;7.20;1.30;;;12.50;64.80;;;;;;4996576;28;20032;-74
2023/04/01 02:54:56;;;;;;;7.70;1.08;;;12.50;64.80;;;;;;4979361;28;20053;-74
2023/04/01 02:57:23;;;;;;;6.18;1.10;;;12.50;64.60;;;;;;4996527;28;20026;-74
2023/04/01 02:59:49;;;;;;;2.85;0.88;;;12.50;64.70;;;;;;4996412;28;20027;-74
2023/04/01 03:02:15;;;;;;;4.03;0.95;;;12.60;64.90;;;;;;4996752;28;20049;-74
2023/04/01 03:04:41;;;;;;;5.85;1.20;;;12.50;65.10;;;;;;4979156;28;20026;-74
2023/04/01 03:07:09;;;;;;;3.60;0.90;;;12.50;64.80;;;;;;4978823;28;20022;-74
2023/04/01 03:09:36;;;;;;;4.35;1.05;;;12.50;64.80;;;;;;4992763;28;20022;-74
2023/04/01 03:12:02;;;;;;;10.65;1.60;;;12.50;64.80;;;;;;4992981;28;20034;-74
2023/04/01 03:14:27;;;;;;;3.25;1.08;;;12.50;64.70;;;;;;4996100;28;20022;-73
2023/04/01 03:16:53;;;;;;;4.95;0.98;;;12.50;64.90;;;;;;4978774;28;20475;-74
2023/04/01 03:19:19;;;;;;;2.50;0.93;;;12.50;65.20;;;;;;4996167;28;20026;-74
2023/04/01 03:21:45;;;;;;;5.22;0.90;;;12.50;65.40;;;;;;4988331;28;20098;-75
2023/04/01 03:24:10;;;;;;;5.85;1.38;;;12.50;65.40;;;;;;4987592;28;20026;-73
2023/04/01 03:26:36;;;;;;;4.53;1.60;;;12.60;65.60;;;;;;4978247;28;20033;-74
2023/04/01 03:29:02;;;;;;;2.92;1.02;;;12.60;65.70;;;;;;4995908;28;20053;-74
2023/04/01 03:31:27;;;;;;;3.53;0.88;;;12.60;65.70;;;;;;4990693;28;20031;-74
2023/04/01 03:33:53;;;;;;;5.30;0.80;;;12.60;65.60;;;;;;4967547;28;20038;-74
2023/04/01 03:36:19;;;;;;;2.22;0.80;;;12.60;65.50;;;;;;4978168;28;20476;-74
2023/04/01 03:38:45;;;;;;;11.00;2.58;;;12.70;65.50;;;;;;4978417;28;20527;-74
2023/04/01 03:41:16;;;;;;;2.25;0.95;;;12.70;65.40;;;;;;4995211;28;20037;-74
2023/04/01 03:43:42;;;;;;;1.95;0.90;;;12.70;65.30;;;;;;4994577;28;20030;-74
2023/04/01 03:46:08;;;;;;;3.00;0.75;;;12.70;65.30;;;;;;4985064;28;20447;-74
2023/04/01 03:48:34;;;;;;;6.57;0.85;;;12.70;65.00;;;;;;4972677;28;20096;-73
2023/04/01 03:51:00;;;;;;;3.10;0.88;;;12.70;65.10;;;;;;4993798;28;20404;-74
2023/04/01 03:53:26;;;;;;;3.25;0.60;;;12.70;64.90;;;;;;4981064;28;20026;-74
2023/04/01 03:55:53;;;;;;;2.13;0.80;;;12.70;65.00;;;;;;4976908;28;20038;-74
2023/04/01 03:58:19;;;;;;;2.00;0.90;;;12.60;65.00;;;;;;4972915;28;20072;-74
2023/04/01 04:00:45;;;;;;;2.40;0.75;;;12.70;65.20;;;;;;4994313;28;20137;-74
2023/04/01 04:03:11;;;;;;;7.07;1.02;;;12.70;65.00;;;;;;4979328;28;20019;-75
2023/04/01 04:05:37;;;;;;;3.80;1.00;;;12.60;65.10;;;;;;4977415;28;20030;-73
2023/04/01 04:08:03;;;;;;;3.70;0.82;;;12.60;65.20;;;;;;4977751;28;20023;-74
2023/04/01 04:10:29;;;;;;;5.35;1.75;;;12.60;65.20;;;;;;4977385;28;20539;-74
2023/04/01 04:12:55;;;;;;;4.00;1.10;;;12.60;65.40;;;;;;4979019;28;20022;-74
2023/04/01 04:15:21;;;;;;;5.32;0.88;;;12.60;65.30;;;;;;4995009;28;20101;-74
2023/04/01 04:17:48;;;;;;;5.28;0.85;;;12.60;65.20;;;;;;4987725;28;20054;-74
2023/04/01 04:20:14;;;;;;;2.42;0.70;;;12.60;65.10;;;;;;4986669;28;20034;-74
2023/04/01 04:22:39;;;;;;;2.22;0.90;;;12.60;65.30;;;;;;4962973;28;20027;-74
2023/04/01 04:25:06;;;;;;;2.58;0.60;;;12.60;65.40;;;;;;4993626;28;20026;-74
2023/04/01 04:27:32;;;;;;;2.30;0.88;;;12.50;65.30;;;;;;4993528;28;20030;-74
2023/04/01 04:29:58;;;;;;;4.93;1.08;;;12.50;65.40;;;;;;4994553;28;20519;-74
2023/04/01 04:32:24;;;;;;;4.10;0.95;;;12.50;65.60;;;;;;4982317;28;20031;-74
2023/04/01 04:34:50;;;;;;;3.65;0.73;;;12.50;65.80;;;;;;4973555;28;20069;-74
2023/04/01 04:37:15;;;;;;;4.50;0.63;;;12.50;65.90;;;;;;4961004;28;20387;-74
2023/04/01 04:39:41;;;;;;;1.52;0.45;;;12.50;66.00;;;;;;4987754;28;20034;-74
2023/04/01 04:42:07;;;;;;;3.17;0.90;;;12.60;66.00;;;;;;4979505;28;20026;-74
2023/04/01 04:44:32;;;;;;;1.75;0.63;;;12.60;65.90;;;;;;4988906;28;20057;-75
2023/04/01 04:46:58;;;;;;;1.95;1.05;;;12.60;65.90;;;;;;4993989;28;20050;-74
2023/04/01 04:49:25;;;;;;;8.02;2.90;;;12.60;65.90;;;;;;4994581;28;20034;-74
2023/04/01 04:51:52;;;;;;;2.25;1.38;;;12.60;65.90;;;;;;4985988;28;20527;-74
2023/04/01 04:54:18;;;;;;;5.25;3.03;;;12.60;65.90;;;;;;4989789;28;20031;-74
2023/04/01 04:56:44;;;;;;;6.93;2.42;;;12.70;66.00;;;;;;4994596;28;20101;-74
2023/04/01 04:59:10;;;;;;;3.22;1.42;;;12.70;66.00;;;;;;4994290;28;20022;-74
2023/04/01 05:01:35;;;;;;;21.48;10.98;;;12.70;66.00;;;;;;4994142;28;20423;-73
2023/04/01 05:04:01;;;;;;;13.13;5.70;;;12.70;66.00;;;;;;4976867;28;20076;-75
2023/04/01 05:06:29;;;;;;;4.53;2.30;;;12.70;66.00;;;;;;4994209;28;20468;-74
2023/04/01 05:08:55;;;;;;;2.08;1.10;;;12.70;66.10;;;;;;4991872;28;20033;-73
2023/04/01 05:11:21;;;;;;;3.65;1.23;;;12.70;66.00;;;;;;4978928;28;20037;-73
2023/04/01 05:13:47;;;;;;;3.55;1.17;;;12.70;66.00;;;;;;4993899;28;20018;-75
2023/04/01 05:16:16;;;;;;;8.68;1.08;;;12.70;66.10;;;;;;4976770;28;20038;-74
2023/04/01 05:18:42;;;;;;;1.90;0.88;;;12.80;66.20;;;;;;4993779;28;20042;-74
2023/04/01 05:21:10;;;;;;;2.40;0.95;;;12.80;66.20;;;;;;4976670;28;20030;-74
2023/04/01 05:23:36;;;;;;;1.63;1.00;;;12.80;66.20;;;;;;4993962;28;20025;-74
2023/04/01 05:26:06;;;;;;;4.03;1.50;;;12.90;66.30;;;;;;4993935;28;20026;-74
2023/04/01 05:28:32;;;;;;;1.45;1.05;;;12.90;67.10;;;;;;4976044;28;20026;-74
2023/04/01 05:31:00;;;;;;;2.97;1.05;;;12.90;66.30;;;;;;4985023;28;20396;-74
2023/04/01 05:33:26;;;;;;;3.28;0.85;;;13.00;66.30;;;;;;4993797;28;20034;-74
2023/04/01 05:35:53;;;;;;;3.17;1.15;;;13.00;66.10;;;;;;4993934;28;20026;-73
2023/04/01 05:38:19;;;;;;;3.75;0.73;;;13.00;65.90;;;;;;4993886;28;20046;-74
2023/04/01 05:40:45;;;;;;;7.68;1.27;;;13.00;65.80;;;;;;4993360;28;20069;-75
2023/04/01 05:43:11;;;;;;;3.45;1.20;;;13.10;65.80;;;;;;4993802;28;20026;-75
2023/04/01 05:45:37;;;;;;;1.83;0.80;;;13.20;65.90;;;;;;4976473;28;20069;-75
2023/04/01 05:48:03;;;;;;;2.38;1.10;;;13.20;65.70;;;;;;4983806;28;20027;-75
2023/04/01 05:50:29;;;;;;;1.60;0.70;;;13.30;65.50;;;;;;4987739;28;20029;-74
2023/04/01 05:52:55;;;;;;;1.25;0.80;;;13.30;65.20;;;;;;4976165;28;20027;-74
2023/04/01 05:55:21;;;;;;;1.83;0.82;;;13.40;64.80;;;;;;4993756;28;20125;-75
2023/04/01 05:57:49;;;;;;;4.63;1.00;;;13.50;64.20;;;;;;4975637;28;20034;-74
2023/04/01 06:00:15;;;;;;;5.18;2.83;;;13.50;62.70;;;;;;4995060;28;20018;-75
2023/04/01 06:02:42;;;;;;;3.25;1.48;;;13.50;62.40;;;;;;4980313;28;20432;-74
2023/04/01 06:05:19;;;;;;;5.07;1.52;;;13.60;61.70;;;;;;4997375;28;20072;-74
2023/04/01 06:07:46;;;;;;;7.43;1.63;;;13.70;61.60;;;;;;4997805;28;20029;-74
2023/04/01 06:10:17;;;;;;;4.35;0.68;;;13.70;60.80;;;;;;4979923;28;20062;-74
2023/04/01 06:13:00;;;;;;;2.70;0.80;;;13.70;60.90;;;;;;4997381;28;20030;-74
2023/04/01 06:15:42;;;;;;;1.55;0.60;;;13.70;61.10;;;;;;4983127;28;20030;-74
2023/04/01 06:18:29;;;;;;;2.50;0.68;;;13.70;60.30;;;;;;4990829;28;20481;-74
2023/04/01 06:21:08;;;;;;;3.20;0.70;;;13.70;60.50;;;;;;4993744;28;20023;-74
2023/04/01 06:24:00;;;;;;;2.22;0.70;;;13.70;60.40;;;;;;4983891;28;20027;-74
2023/04/01 06:26:52;;;;;;;2.78;0.60;;;13.70;60.60;;;;;;4997048;28;20019;-74
2023/04/01 06:29:32;;;;;;;2.88;0.82;;;13.70;60.70;;;;;;4981623;28;20022;-74
2023/04/01 06:32:14;;;;;;;2.33;0.60;;;13.80;60.70;;;;;;4996771;28;20034;-74
2023/04/01 06:34:45;;;;;;;1.35;0.60;;;13.80;60.60;;;;;;4997054;28;20047;-74
2023/04/01 06:37:28;;;;;;;1.02;0.70;;;13.90;60.40;;;;;;4996470;28;20030;-75
2023/04/01 06:40:04;;;;;;;2.05;1.00;;;13.80;60.00;;;;;;4995947;28;20476;-74
2023/04/01 06:42:56;;;;;;;0.93;0.50;;;13.90;59.90;;;;;;4996605;28;20109;-74
2023/04/01 06:45:33;;;;;;;3.00;0.90;;;14.00;60.00;;;;;;4957010;28;20038;-75
2023/04/01 06:48:20;;;;;;;2.65;1.10;;;14.00;59.40;;;;;;4980963;28;20023;-74
2023/04/01 06:51:07;;;;;;;2.78;0.80;;;14.10;59.60;;;;;;4975579;28;20391;-74
2023/04/01 06:53:33;;;;;;;2.05;0.60;;;14.10;59.50;;;;;;4983117;28;20022;-74
2023/04/01 06:56:07;;;;;;;3.10;0.70;;;14.20;59.60;;;;;;4979093;28;20042;-74
2023/04/01 06:58:41;;;;;;;6.22;1.38;;;14.30;58.80;;;;;;4965398;28;20067;-74
2023/04/01 07:01:13;;;;;;;3.47;1.60;;;14.40;58.90;;;;;;4992606;28;20096;-74
2023/04/01 07:03:49;;;;;;;3.47;0.80;;;14.50;58.70;;;;;;4966214;28;20030;-75
2023/04/01 07:06:35;;;;;;;1.73;0.47;;;14.60;58.20;;;;;;4996291;28;20026;-75
2023/04/01 07:09:06;;;;;;;1.27;0.50;;;14.70;57.90;;;;;;4978800;28;20451;-74
2023/04/01 07:11:35;;;;;;;2.05;0.60;;;14.80;57.60;;;;;;4978558;28;20069;-75
2023/04/01 07:14:07;;;;;;;2.28;0.47;;;14.90;57.60;;;;;;4986480;28;20022;-74
2023/04/01 07:16:53;;;;;;;2.72;0.60;;;15.00;57.10;;;;;;4995769;28;20456;-74
2023/04/01 07:19:34;;;;;;;2.78;0.65;;;15.10;57.10;;;;;;4976916;28;20106;-75
2023/04/01 07:22:32;;;;;;;0.77;0.30;;;15.20;56.30;;;;;;4991470;28;20412;-74
2023/04/01 07:25:05;;;;;;;1.60;0.45;;;15.30;56.80;;;;;;4995990;28;20030;-75
2023/04/01 07:27:31;;;;;;;4.20;0.70;;;15.40;56.10;;;;;;4989727;28;20030;-74
2023/04/01 07:29:57;;;;;;;1.75;0.50;;;15.40;55.70;;;;;;4985478;28;20030;-74
2023/04/01 07:32:42;;;;;;;0.82;0.50;;;15.50;55.70;;;;;;4982883;28;20384;-74
2023/04/01 07:35:21;;;;;;;1.63;0.50;;;15.50;55.60;;;;;;4994766;28;20061;-74
2023/04/01 07:38:08;;;;;;;0.98;0.50;;;15.60;55.60;;;;;;4988046;28;20027;-74
2023/04/01 07:40:43;;;;;;;0.93;0.52;;;15.70;54.40;;;;;;4972652;28;20026;-73
2023/04/01 07:43:12;;;;;;;2.63;0.88;;;15.60;54.00;;;;;;4979402;28;20055;-74
2023/04/01 07:45:52;;;;;;;0.85;0.50;;;15.60;54.20;;;;;;4995388;28;20030;-74
2023/04/01 07:48:47;;;;;;;1.95;0.65;;;15.60;54.10;;;;;;4988167;28;20023;-74
2023/04/01 07:51:45;;;;;;;3.75;0.70;;;15.70;54.30;;;;;;4988258;28;20035;-74
2023/04/01 07:54:32;;;;;;;2.15;0.73;;;15.70;53.60;;;;;;4987099;28;20074;-74
2023/04/01 07:57:20;;;;;;;1.60;0.50;;;15.80;53.80;;;;;;4994201;28;20026;-73
2023/04/01 08:00:11;;;;;;;0.47;0.45;;;15.90;53.70;;;;;;4983595;28;20488;-74
2023/04/01 08:03:00;;;;;;;1.77;0.70;;;15.90;53.60;;;;;;4977764;28;20030;-75
2023/04/01 08:05:29;;;;;;;2.05;0.60;;;16.00;53.40;;;;;;4963043;28;20476;-74
2023/04/01 08:07:57;;;;;;;3.35;1.10;;;16.00;53.30;;;;;;4977536;28;20369;-72
2023/04/01 08:10:47;;;;;;;1.85;0.60;;;16.10;52.30;;;;;;4977687;28;20534;-75
2023/04/01 08:13:19;;;;;;;1.55;0.60;;;16.00;52.20;;;;;;4994942;28;20057;-75
2023/04/01 08:15:50;;;;;;;3.30;1.60;;;16.00;52.50;;;;;;4994747;28;20033;-73
2023/04/01 08:18:35;;;;;;;4.18;2.53;;;16.00;52.50;;;;;;4986101;28;20026;-73
2023/04/01 08:21:35;;;;;;;2.38;0.75;;;16.00;52.50;;;;;;4978759;28;20027;-73
2023/04/01 08:24:16;;;;;;;1.00;0.30;;;16.00;51.80;;;;;;4984483;28;20022;-73
2023/04/01 08:26:48;;;;;;;1.23;0.63;;;15.90;51.70;;;;;;4994785;28;20034;-73
2023/04/01 08:29:38;;;;;;;2.22;0.73;;;15.80;51.70;;;;;;4978786;28;20026;-73
2023/04/01 08:32:12;;;;;;;1.25;0.68;;;15.70;51.40;;;;;;4967242;28;20038;-74
2023/04/01 08:34:42;;;;;;;1.95;0.85;;;15.70;51.90;;;;;;4989782;28;20046;-73
2023/04/01 08:37:32;;;;;;;0.98;0.50;;;15.70;51.90;;;;;;4994418;28;20022;-73
2023/04/01 08:40:23;;;;;;;2.35;0.60;;;15.70;51.80;;;;;;4984817;28;20026;-72
2023/04/01 08:43:02;;;;;;;5.13;0.57;;;15.70;51.40;;;;;;4991328;28;20022;-73
2023/04/01 08:46:06;;;;;;;1.85;0.38;;;15.70;51.60;;;;;;4980422;28;20033;-73
2023/04/01 08:48:41;;;;;;;1.67;0.70;;;15.80;52.00;;;;;;4988938;28;20033;-73
2023/04/01 08:51:30;;;;;;;0.20;0.20;;;15.80;51.30;;;;;;4994225;28;20027;-73
2023/04/01 08:54:17;;;;;;;0.85;0.40;;;15.90;51.30;;;;;;4965459;28;20053;-73
2023/04/01 08:57:01;;;;;;;1.23;0.50;;;15.90;51.20;;;;;;4976514;28;20506;-73
2023/04/01 08:59:39;;;;;;;1.35;0.60;;;16.10;51.20;;;;;;4980032;28;20057;-74
2023/04/01 09:02:26;;;;;;;4.10;0.50;;;16.20;51.00;;;;;;4993978;28;20034;-73
2023/04/01 09:05:11;;;;;;;3.53;0.57;;;16.30;50.10;;;;;;4994347;28;20407;-72
2023/04/01 09:07:58;;;;;;;2.38;0.68;;;16.40;50.30;;;;;;4994089;28;20019;-72
2023/04/01 09:10:49;;;;;;;1.67;0.60;;;16.60;49.90;;;;;;4993965;28;20034;-73
2023/04/01 09:13:31;;;;;;;1.25;0.80;;;16.70;49.50;;;;;;4978284;28;20018;-72
2023/04/01 09:16:03;;;;;;;3.95;0.77;;;16.80;48.60;;;;;;4994169;28;20035;-73
2023/04/01 09:19:10;;;;;;;2.10;0.68;;;16.90;48.80;;;;;;4983101;28;20469;-73
2023/04/01 09:21:59;;;;;;;0.98;0.47;;;17.00;48.80;;;;;;4969699;28;20047;-72
2023/04/01 09:25:04;;;;;;;1.20;0.70;;;17.10;47.70;;;;;;4987578;28;20435;-72
2023/04/01 09:27:56;;;;;;;4.95;0.75;;;17.20;47.80;;;;;;4963657;28;20440;-73
2023/04/01 09:30:46;;;;;;;1.52;0.77;;;17.30;47.50;;;;;;4993863;28;20026;-73
2023/04/01 09:33:46;;;;;;;1.50;0.70;;;17.30;47.50;;;;;;4977607;28;20018;-73
2023/04/01 09:36:34;;;;;;;1.95;0.57;;;17.40;47.50;;;;;;4974212;28;20035;-73
2023/04/01 09:39:26;;;;;;;3.60;0.98;;;17.40;45.70;;;;;;4974424;28;20094;-73
2023/04/01 09:42:25;;;;;;;1.05;0.50;;;17.40;46.40;;;;;;4974071;28;20480;-73
2023/04/01 09:45:06;;;;;;;1.73;0.47;;;17.40;45.80;;;;;;4944450;28;20404;-73
2023/04/01 09:47:56;;;;;;;2.53;1.30;;;17.50;45.60;;;;;;4959858;28;20472;-73
2023/04/01 09:50:50;;;;;;;2.00;0.52;;;17.50;46.30;;;;;;4962218;28;20031;-72
2023/04/01 09:53:45;;;;;;;1.95;0.80;;;17.60;46.00;;;;;;4974382;28;20497;-73
2023/04/01 09:56:22;;;;;;;1.08;0.50;;;17.50;45.40;;;;;;4974027;28;20026;-73
2023/04/01 09:59:15;;;;;;;2.03;0.98;;;17.60;46.00;;;;;;4974260;28;20027;-73
2023/04/01 10:01:52;;;;;;;0.85;0.68;;;17.50;47.00;;;;;;4959411;28;20023;-73
2023/04/01 10:04:39;;;;;;;1.52;0.60;;;17.50;47.70;;;;;;4963761;28;20472;-72
2023/04/01 10:07:11;;;;;;;3.42;1.05;;;17.40;48.20;;;;;;4972531;28;20026;-73
2023/04/01 10:10:00;;;;;;;0.70;0.50;;;17.30;48.20;;;;;;4956764;28;20030;-73
2023/04/01 10:12:35;;;;;;;0.52;0.47;;;17.20;48.50;;;;;;4956540;28;20031;-73
2023/04/01 10:15:32;;;;;;;1.40;0.60;;;17.20;48.50;;;;;;4974154;28;20404;-73
2023/04/01 10:18:42;;;;;;;0.82;0.50;;;17.20;48.60;;;;;;4973533;28;20127;-74
2023/04/01 10:21:35;;;;;;;1.05;0.60;;;17.20;49.20;;;;;;4973069;28;20058;-74
2023/04/01 10:24:29;;;;;;;1.13;0.60;;;17.30;49.70;;;;;;4973832;28;20027;-72
2023/04/01 10:27:06;;;;;;;3.28;1.05;;;17.40;49.00;;;;;;4973338;28;20019;-72
2023/04/01 10:29:47;;;;;;;1.63;0.50;;;17.60;48.80;;;;;;4968852;28;20034;-72
2023/04/01 10:32:39;;;;;;;3.05;0.95;;;17.80;48.30;;;;;;4956312;28;20089;-72
2023/04/01 10:35:26;;;;;;;6.07;0.93;;;18.00;47.90;;;;;;4895400;29;20056;-73
2023/04/01 10:38:16;;;;;;;3.80;0.60;;;18.20;47.20;;;;;;4918191;29;20036;-72
2023/04/01 10:41:22;;;;;;;1.75;0.50;;;18.30;45.00;;;;;;4895621;29;20124;-72
2023/04/01 10:44:24;;;;;;;2.97;1.00;;;18.30;44.20;;;;;;4884554;29;20028;-72
2023/04/01 10:47:31;;;;;;;0.98;0.60;;;18.30;44.90;;;;;;4894304;29;20068;-72
2023/04/01 10:50:19;;;;;;;2.40;0.65;;;18.50;44.40;;;;;;4899231;29;20553;-72
2023/04/01 10:53:03;;;;;;;2.75;0.90;;;18.60;44.20;;;;;;4901245;29;20564;-72
2023/04/01 10:55:32;;;;;;;2.85;0.45;;;18.70;43.20;;;;;;4885530;29;20032;-72
2023/04/01 10:58:19;;;;;;;1.10;0.40;;;18.80;42.30;;;;;;4907048;29;20039;-73
2023/04/01 11:01:00;;;;;;;4.28;2.45;;;18.70;41.90;;;;;;4901462;29;20112;-72
2023/04/01 11:04:06;;;;;;;2.22;0.68;;;18.80;42.70;;;;;;4884917;29;20028;-72
2023/04/01 11:06:46;;;;;;;2.85;0.90;;;18.80;41.80;;;;;;4902460;29;20123;-73
2023/04/01 11:09:36;;;;;;;0.95;0.50;;;18.80;42.50;;;;;;4899133;29;20041;-73
2023/04/01 11:12:28;;;;;;;0.85;0.60;;;18.90;42.00;;;;;;4949070;28;20184;-73
2023/04/01 11:15:12;;;;;;;1.90;0.45;;;19.00;42.20;;;;;;4992878;28;20031;-72
2023/04/01 11:18:17;;;;;;;1.17;0.40;;;19.10;41.20;;;;;;4983357;28;20057;-72
2023/04/01 11:21:18;;;;;;;1.25;0.50;;;19.10;41.30;;;;;;4996018;28;20538;-73
2023/04/01 11:24:21;;;;;;;1.42;0.52;;;19.20;40.80;;;;;;4886777;29;20032;-73
2023/04/01 11:27:08;;;;;;;1.10;0.57;;;19.30;40.90;;;;;;4974473;28;20511;-72
2023/04/01 11:30:00;;;;;;;1.67;0.50;;;19.30;40.40;;;;;;4982628;28;20030;-71
2023/04/01 11:32:44;;;;;;;1.15;0.32;;;19.30;40.40;;;;;;4996653;28;20015;-73
2023/04/01 11:35:25;;;;;;;1.38;0.50;;;19.30;39.80;;;;;;4993673;28;20057;-72
2023/04/01 11:38:03;;;;;;;1.58;0.63;;;19.20;39.60;;;;;;4993752;28;20145;-73
2023/04/01 11:40:39;;;;;;;5.45;0.65;;;19.20;39.90;;;;;;4991692;28;20066;-73
2023/04/01 11:43:24;;;;;;;1.98;0.85;;;19.20;39.40;;;;;;4976073;28;20021;-72
2023/04/01 11:45:57;;;;;;;2.42;1.02;;;19.20;40.70;;;;;;5000481;28;20402;-74
2023/04/01 11:48:57;;;;;;;4.20;0.80;;;19.30;39.80;;;;;;4994201;28;20077;-73
2023/04/01 11:51:56;;;;;;;1.98;0.70;;;19.40;40.60;;;;;;4994147;28;20030;-72
2023/04/01 11:54:50;;;;;;;1.10;0.70;;;19.50;40.20;;;;;;4993892;28;20033;-73
2023/04/01 11:57:40;;;;;;;0.63;0.40;;;19.60;39.60;;;;;;4993232;28;20023;-73
2023/04/01 12:00:43;;;;;;;1.38;0.75;;;19.60;39.30;;;;;;4973151;28;20447;-73
2023/04/01 12:03:46;;;;;;;1.42;0.68;;;19.50;39.10;;;;;;4993489;28;20554;-73
2023/04/01 12:06:40;;;;;;;1.73;0.60;;;19.40;39.70;;;;;;4992217;28;20420;-74
2023/04/01 12:09:10;;;;;;;3.15;1.48;;;19.30;40.10;;;;;;4993139;28;20046;-74
2023/04/01 12:11:49;;;;;;;3.33;0.50;;;19.20;39.70;;;;;;4994046;28;20026;-73
2023/04/01 12:14:31;;;;;;;2.50;0.70;;;19.20;39.30;;;;;;5000687;28;20018;-73
2023/04/01 12:17:14;;;;;;;2.13;0.70;;;19.20;40.00;;;;;;4992521;28;20041;-73
2023/04/01 12:19:48;;;;;;;5.35;0.73;;;19.20;39.80;;;;;;4993086;28;20105;-73
2023/04/01 12:22:38;;;;;;;1.20;0.63;;;19.10;39.40;;;;;;4974787;28;20097;-72
2023/04/01 12:25:23;;;;;;;1.77;0.70;;;19.20;40.60;;;;;;4993698;28;20019;-73
2023/04/01 12:28:12;;;;;;;1.92;0.50;;;19.20;39.70;;;;;;4993677;28;20023;-73
2023/04/01 12:30:54;;;;;;;0.80;0.40;;;19.10;38.80;;;;;;4964429;28;20506;-73
2023/04/01 12:34:15;;;;;;;0.47;0.38;;;19.10;39.10;;;;;;4992184;28;20022;-73
2023/04/01 12:37:07;;;;;;;0.95;0.55;;;19.10;39.40;;;;;;4928266;29;20119;-73
2023/04/01 12:39:39;;;;;;;1.33;0.63;;;19.20;39.60;;;;;;4925953;29;20031;-73
2023/04/01 12:42:23;;;;;;;2.38;0.77;;;19.30;39.80;;;;;;4972150;28;20029;-72
2023/04/01 12:45:03;;;;;;;4.15;0.90;;;19.40;39.70;;;;;;4990546;28;20147;-73
2023/04/01 12:47:52;;;;;;;2.15;0.50;;;19.40;38.80;;;;;;4990762;28;20100;-72
2023/04/01 12:50:24;;;;;;;4.40;0.52;;;19.40;39.30;;;;;;4989321;28;20536;-73
2023/04/01 12:53:34;;;;;;;1.25;0.50;;;19.40;39.20;;;;;;4991061;28;20026;-73
2023/04/01 12:56:03;;;;;;;1.23;0.43;;;19.40;39.30;;;;;;4992161;28;20054;-72
2023/04/01 12:58:50;;;;;;;1.00;0.40;;;19.40;40.30;;;;;;4987797;28;20026;-72
2023/04/01 13:01:39;;;;;;;3.33;0.75;;;19.30;41.20;;;;;;4973692;28;20026;-73
2023/04/01 13:04:30;;;;;;;0.85;0.50;;;19.20;46.00;;;;;;4990379;28;20084;-72
2023/04/01 13:07:14;;;;;;;0.52;0.43;;;18.80;48.00;;;;;;4991627;28;20100;-73
2023/04/01 13:09:47;;;;;;;0.55;0.25;;;18.50;48.30;;;;;;4991772;28;20057;-73
2023/04/01 13:12:42;;;;;;;2.25;0.60;;;18.30;49.50;;;;;;4990764;28;20026;-73
2023/04/01 13:15:49;;;;;;;0.50;0.47;;;18.10;49.30;;;;;;4993058;28;20035;-73
2023/04/01 13:18:31;;;;;;;1.00;0.50;;;17.80;50.30;;;;;;4993181;28;20022;-72
2023/04/01 13:21:14;;;;;;;1.23;0.52;;;17.70;51.50;;;;;;4993842;28;20027;-73
2023/04/01 13:23:50;;;;;;;0.80;0.40;;;17.60;51.30;;;;;;4994099;28;20026;-73
2023/04/01 13:26:26;;;;;;;1.02;0.60;;;17.40;51.00;;;;;;4993733;28;20448;-73
2023/04/01 13:29:13;;;;;;;0.88;0.40;;;17.40;51.30;;;;;;4993889;28;20026;-72
2023/04/01 13:32:02;;;;;;;2.15;0.63;;;17.40;51.00;;;;;;4975997;28;20026;-73
2023/04/01 13:34:35;;;;;;;1.60;0.95;;;17.40;50.60;;;;;;4988900;28;20473;-73
2023/04/01 13:37:22;;;;;;;1.33;0.80;;;17.40;50.90;;;;;;4986375;28;20547;-73
2023/04/01 13:40:10;;;;;;;3.63;1.67;;;17.40;51.10;;;;;;4993843;28;20037;-73